Watrous, Canada
Current Conditions -  °F | °C
As of 2:26 AM on Saturday 22 Nov 2014 (Local Time) from CYXE Reporting Station
Haze Haze  
Wind Chill: 16°   Ceiling: 300
Heat Index: 27°   Visibility: 2mi
Dew Point: 27°   Wind: 12mph
Humidity: 100%   Direction: 70°ENE
Pressure: 29.51"   Gusts: NA
Location:  51.67°N, 105.45°W
Report Text: CYXE 220826Z 07010KT 2SM BR OVC003 M03/M03 A2951 RMK ST8 SLP017
Loading
Personal Weather Stations






























Interactive Weather Map New forecast layout! Learn more

10-Day Weather Forecast

Advertisements
Track Severe Weather on mobile